createdAt,value
2022-07-30T00:02:19.168Z,22.01
2022-07-30T00:04:50.551Z,22.01
2022-07-30T00:07:20.991Z,22.02
2022-07-30T00:09:51.427Z,21.89
2022-07-30T00:12:22.381Z,22.06
2022-07-30T00:14:53.060Z,22.06
2022-07-30T00:17:24.064Z,22.13
2022-07-30T00:19:55.649Z,22.26
2022-07-30T00:22:27.310Z,22.26
2022-07-30T00:24:57.873Z,22.28
2022-07-30T00:27:28.951Z,22.28
2022-07-30T00:29:59.422Z,22.10
2022-07-30T00:32:30.370Z,22.24
2022-07-30T00:35:00.992Z,22.34
2022-07-30T00:37:31.447Z,22.32
2022-07-30T00:40:03.616Z,22.32
2022-07-30T00:42:42.671Z,22.45
2022-07-30T00:45:15.251Z,22.14
2022-07-30T00:47:46.439Z,21.99
2022-07-30T00:50:24.561Z,22.13
2022-07-30T00:52:56.154Z,22.13
2022-07-30T00:55:26.751Z,22.21
2022-07-30T00:57:57.727Z,22.21
2022-07-30T01:00:29.116Z,22.21
2022-07-30T01:03:01.889Z,22.21
2022-07-30T01:05:32.717Z,22.08
2022-07-30T01:08:03.215Z,22.09
2022-07-30T01:10:34.235Z,22.09
2022-07-30T01:13:05.645Z,22.02
2022-07-30T01:15:37.274Z,22.11
2022-07-30T01:18:11.949Z,21.98
2022-07-30T01:21:06.209Z,21.98
2022-07-30T01:23:41.910Z,21.99
2022-07-30T01:26:18.282Z,21.79
2022-07-30T01:28:51.545Z,21.78
2022-07-30T01:31:24.177Z,21.82
2022-07-30T01:33:57.176Z,21.82
2022-07-30T01:36:30.323Z,21.82
2022-07-30T01:39:02.776Z,21.56
2022-07-30T01:41:35.277Z,21.56
2022-07-30T01:44:07.041Z,21.46
2022-07-30T01:46:39.718Z,21.38
2022-07-30T01:49:11.940Z,21.34
2022-07-30T01:51:45.208Z,21.34
2022-07-30T01:54:17.520Z,21.29
2022-07-30T01:56:51.331Z,21.29
2022-07-30T01:59:23.202Z,21.43
2022-07-30T02:01:54.419Z,21.32
2022-07-30T02:04:25.002Z,21.32
2022-07-30T02:07:16.781Z,21.21
2022-07-30T02:09:55.751Z,21.21
2022-07-30T02:12:27.616Z,21.16
2022-07-30T02:15:10.155Z,21.03
2022-07-30T02:17:45.128Z,21.03
2022-07-30T02:20:18.993Z,20.89
2022-07-30T02:22:53.523Z,20.93
2022-07-30T02:25:26.368Z,20.93
2022-07-30T02:28:00.640Z,20.56
2022-07-30T02:30:36.113Z,20.63
2022-07-30T02:33:10.597Z,20.63
2022-07-30T02:35:42.281Z,20.82
2022-07-30T02:38:15.957Z,20.82
2022-07-30T02:40:46.847Z,20.85
2022-07-30T02:43:18.677Z,20.68
2022-07-30T02:45:49.984Z,20.86
2022-07-30T02:48:34.676Z,20.90
2022-07-30T02:50:58.843Z,20.91
2022-07-30T02:53:31.204Z,20.78
2022-07-30T02:56:03.432Z,20.75
2022-07-30T02:58:37.791Z,20.56
2022-07-30T03:01:11.603Z,20.59
2022-07-30T03:03:46.724Z,20.63
2022-07-30T03:06:23.308Z,20.55
2022-07-30T03:08:55.002Z,20.48
2022-07-30T03:11:27.138Z,20.58
2022-07-30T03:13:58.620Z,20.54
2022-07-30T03:16:31.152Z,20.72
2022-07-30T03:19:06.244Z,20.73
2022-07-30T03:21:40.489Z,20.73
2022-07-30T03:24:14.113Z,20.63
2022-07-30T03:26:46.957Z,20.75
2022-07-30T03:29:24.823Z,20.85
2022-07-30T03:31:56.498Z,20.90
2022-07-30T03:34:28.084Z,20.90
2022-07-30T03:37:02.307Z,20.83
2022-07-30T03:39:39.382Z,20.83
2022-07-30T03:42:10.759Z,20.68
2022-07-30T03:44:44.238Z,20.95
2022-07-30T03:47:15.907Z,20.95
2022-07-30T03:49:46.665Z,20.68
2022-07-30T03:52:38.309Z,20.53
2022-07-30T03:55:14.914Z,20.46
2022-07-30T03:57:45.299Z,20.46
2022-07-30T04:00:18.139Z,20.58
2022-07-30T04:02:50.396Z,20.84
2022-07-30T04:05:21.907Z,20.84
2022-07-30T04:07:52.995Z,21.00
2022-07-30T04:10:24.744Z,21.00
2022-07-30T04:12:55.798Z,21.13
2022-07-30T04:16:05.715Z,21.42
2022-07-30T04:18:01.651Z,21.69
2022-07-30T04:20:39.563Z,21.69
2022-07-30T04:23:12.313Z,21.98
2022-07-30T04:25:44.668Z,21.93
2022-07-30T04:28:16.009Z,21.86
2022-07-30T04:30:47.077Z,21.86
2022-07-30T04:33:18.145Z,22.07
2022-07-30T04:35:52.363Z,22.27
2022-07-30T04:38:23.080Z,22.36
2022-07-30T04:40:53.877Z,22.36
2022-07-30T04:43:24.909Z,22.36
2022-07-30T04:45:56.456Z,22.59
2022-07-30T04:48:26.964Z,22.76
2022-07-30T04:51:01.571Z,22.88
2022-07-30T04:53:34.977Z,23.07
2022-07-30T04:56:07.325Z,22.95
2022-07-30T04:58:38.918Z,23.08
2022-07-30T05:01:10.850Z,23.21
2022-07-30T05:03:41.867Z,23.53
2022-07-30T05:06:14.686Z,23.78
2022-07-30T05:08:45.810Z,23.85
2022-07-30T05:11:19.127Z,23.82
2022-07-30T05:13:50.163Z,23.83
2022-07-30T05:16:23.664Z,23.83
2022-07-30T05:18:55.906Z,24.03
2022-07-30T05:21:29.024Z,24.00
2022-07-30T05:23:59.278Z,24.03
2022-07-30T05:26:29.804Z,24.03
2022-07-30T05:29:02.901Z,24.27
2022-07-30T05:31:51.078Z,24.43
2022-07-30T05:34:21.630Z,24.76
2022-07-30T05:36:52.121Z,24.76
2022-07-30T05:39:24.183Z,24.77
2022-07-30T05:41:55.218Z,24.97
2022-07-30T05:44:27.677Z,25.16
2022-07-30T05:47:04.190Z,25.18
2022-07-30T05:49:41.118Z,25.42
2022-07-30T05:52:14.792Z,25.42
2022-07-30T05:54:48.178Z,25.53
2022-07-30T05:57:21.194Z,25.64
2022-07-30T05:59:51.628Z,25.64
2022-07-30T06:02:29.194Z,25.91
2022-07-30T06:05:19.420Z,25.97
2022-07-30T06:07:56.246Z,26.26
2022-07-30T06:16:27.974Z,26.45
2022-07-30T06:19:06.138Z,26.51
2022-07-30T06:22:06.203Z,26.69
2022-07-30T06:24:25.526Z,26.78
2022-07-30T06:29:58.109Z,27.05
2022-07-30T06:32:31.881Z,27.11
2022-07-30T06:35:05.109Z,27.32
2022-07-30T06:38:00.661Z,27.73
2022-07-30T06:40:22.097Z,27.90
2022-07-30T06:42:54.769Z,28.38
2022-07-30T06:45:25.925Z,28.52
2022-07-30T06:48:00.489Z,28.54
2022-07-30T06:50:32.006Z,28.71
2022-07-30T06:53:03.106Z,28.71
2022-07-30T06:55:35.188Z,29.42
2022-07-30T06:58:25.389Z,29.25
2022-07-30T07:00:52.245Z,29.69
2022-07-30T07:03:24.564Z,29.69
2022-07-30T07:06:02.176Z,29.52
2022-07-30T07:08:36.332Z,29.93
2022-07-30T07:11:07.373Z,30.50
2022-07-30T07:13:38.441Z,30.74
2022-07-30T07:16:08.920Z,30.74
2022-07-30T07:18:39.983Z,31.48
2022-07-30T07:21:11.112Z,31.48
2022-07-30T07:23:45.351Z,31.14
2022-07-30T07:26:16.925Z,31.32
2022-07-30T07:28:47.895Z,32.12
2022-07-30T07:32:05.676Z,31.99
2022-07-30T07:33:51.792Z,31.99
2022-07-30T07:36:24.239Z,32.03
2022-07-30T07:38:54.744Z,31.70
2022-07-30T07:41:28.770Z,31.50
2022-07-30T07:43:59.359Z,32.76
2022-07-30T07:46:33.503Z,32.76
2022-07-30T07:49:03.573Z,33.08
2022-07-30T07:51:48.109Z,33.12
2022-07-30T07:54:21.123Z,33.27
2022-07-30T07:56:42.213Z,33.49
2022-07-30T07:59:13.664Z,32.83
2022-07-30T08:01:47.200Z,33.25
2022-07-30T08:04:20.457Z,33.49
2022-07-30T08:06:54.559Z,32.88
2022-07-30T08:09:43.902Z,32.88
2022-07-30T08:12:05.294Z,33.94
2022-07-30T08:14:37.029Z,33.94
2022-07-30T08:17:08.972Z,33.89
2022-07-30T08:19:41.349Z,33.42
2022-07-30T08:22:13.754Z,33.55
2022-07-30T08:24:44.865Z,34.14
2022-07-30T08:27:17.524Z,33.80
2022-07-30T08:29:49.569Z,34.06
2022-07-30T08:32:20.258Z,33.31
2022-07-30T08:34:57.419Z,33.99
2022-07-30T08:37:27.763Z,33.81
2022-07-30T08:39:59.348Z,35.41
2022-07-30T08:42:31.302Z,35.41
2022-07-30T08:45:03.297Z,34.58
2022-07-30T08:47:34.947Z,34.58
2022-07-30T08:50:08.014Z,33.87
2022-07-30T08:52:40.461Z,33.73
2022-07-30T08:55:14.133Z,34.83
2022-07-30T08:57:45.197Z,35.04
2022-07-30T09:00:17.779Z,35.04
2022-07-30T09:02:48.822Z,34.48
2022-07-30T09:05:26.714Z,34.48
2022-07-30T09:07:59.319Z,35.13
2022-07-30T09:10:36.557Z,35.06
2022-07-30T09:13:39.352Z,33.20
2022-07-30T09:16:26.216Z,33.68
2022-07-30T09:18:56.902Z,33.68
2022-07-30T09:21:29.006Z,33.70
2022-07-30T09:24:07.869Z,34.18
2022-07-30T09:27:03.579Z,34.17
2022-07-30T09:29:35.732Z,34.76
2022-07-30T09:32:08.727Z,35.78
2022-07-30T09:34:40.018Z,35.42
2022-07-30T09:37:16.641Z,36.28
2022-07-30T09:39:58.986Z,36.28
2022-07-30T09:42:28.651Z,36.74
2022-07-30T09:45:08.839Z,36.00
2022-07-30T09:47:47.402Z,35.49
2022-07-30T09:50:29.937Z,35.87
2022-07-30T09:52:59.475Z,36.58
2022-07-30T09:55:41.220Z,36.50
2022-07-30T09:58:13.032Z,36.62
2022-07-30T10:00:44.702Z,36.28
2022-07-30T10:03:33.682Z,36.87
2022-07-30T10:06:01.413Z,36.87
2022-07-30T10:08:49.546Z,36.00
2022-07-30T10:11:23.580Z,33.60
2022-07-30T10:14:07.509Z,33.60
2022-07-30T10:16:39.397Z,33.50
2022-07-30T10:19:17.963Z,34.94
2022-07-30T10:21:50.681Z,36.20
2022-07-30T10:24:27.481Z,35.52
2022-07-30T10:26:56.058Z,35.52
2022-07-30T10:29:33.850Z,36.36
2022-07-30T10:32:02.451Z,37.94
2022-07-30T10:37:29.258Z,37.26
2022-07-30T10:40:23.076Z,35.74
2022-07-30T10:46:54.592Z,36.12
2022-07-30T10:49:25.439Z,35.67
2022-07-30T10:51:59.296Z,33.64
2022-07-30T10:54:40.189Z,33.64
2022-07-30T10:57:22.830Z,34.03
2022-07-30T11:00:04.049Z,34.47
2022-07-30T11:02:44.963Z,35.50
2022-07-30T11:05:27.053Z,35.85
2022-07-30T11:08:03.922Z,34.91
2022-07-30T11:10:40.635Z,35.21
2022-07-30T11:13:14.313Z,36.08
2022-07-30T11:16:00.559Z,37.06
2022-07-30T11:18:35.699Z,37.06
2022-07-30T11:21:28.720Z,36.82
2022-07-30T11:24:09.422Z,36.43
2022-07-30T11:26:43.321Z,35.10
2022-07-30T11:29:51.261Z,35.89
2022-07-30T11:32:33.628Z,36.52
2022-07-30T11:35:19.678Z,35.50
2022-07-30T11:38:18.715Z,36.58
2022-07-30T11:40:58.354Z,37.76
2022-07-30T11:43:36.830Z,37.76
2022-07-30T11:46:29.718Z,35.70
2022-07-30T11:49:27.726Z,37.55
2022-07-30T11:51:58.325Z,38.76
2022-07-30T11:57:50.252Z,38.14
2022-07-30T12:00:22.128Z,37.00
2022-07-30T12:02:56.320Z,37.01
2022-07-30T12:05:29.060Z,36.69
2022-07-30T12:08:03.300Z,36.71
2022-07-30T12:10:39.693Z,36.54
2022-07-30T12:13:20.198Z,36.04
2022-07-30T12:15:59.120Z,36.32
2022-07-30T12:18:32.946Z,38.11
2022-07-30T12:21:10.679Z,37.29
2022-07-30T12:23:55.110Z,36.89
2022-07-30T12:26:34.983Z,34.31
2022-07-30T12:29:12.432Z,34.83
2022-07-30T12:31:43.670Z,35.15
2022-07-30T12:34:22.853Z,36.05
2022-07-30T12:36:59.155Z,36.83
2022-07-30T12:39:34.157Z,37.78
2022-07-30T12:42:07.724Z,36.58
2022-07-30T12:44:43.918Z,35.84
2022-07-30T12:47:27.848Z,37.21
2022-07-30T12:50:26.509Z,37.43
2022-07-30T12:53:13.209Z,37.70
2022-07-30T12:56:27.797Z,39.33
2022-07-30T13:05:10.563Z,38.17
2022-07-30T13:07:55.881Z,39.13
2022-07-30T13:10:36.179Z,39.78
2022-07-30T13:13:11.589Z,38.46
2022-07-30T13:15:54.128Z,37.44
2022-07-30T13:18:33.380Z,37.44
2022-07-30T13:21:06.366Z,38.14
2022-07-30T13:26:26.824Z,39.98
2022-07-30T13:29:01.735Z,39.93
2022-07-30T13:31:42.987Z,39.05
2022-07-30T13:34:15.232Z,36.59
2022-07-30T13:36:49.326Z,37.71
2022-07-30T13:39:27.728Z,37.71
2022-07-30T13:42:10.088Z,38.24
2022-07-30T13:44:41.086Z,37.96
2022-07-30T13:47:17.570Z,37.30
2022-07-30T13:49:49.843Z,37.30
2022-07-30T13:52:21.053Z,36.87
2022-07-30T13:54:55.376Z,35.46
2022-07-30T13:57:26.058Z,36.10
2022-07-30T13:59:59.555Z,35.87
2022-07-30T14:02:32.749Z,35.87
2022-07-30T14:05:12.629Z,36.85
2022-07-30T14:07:46.020Z,36.68
2022-07-30T14:10:19.523Z,36.68
2022-07-30T14:12:58.544Z,35.99
2022-07-30T14:15:36.291Z,34.24
2022-07-30T14:18:08.430Z,34.24
2022-07-30T14:21:01.405Z,33.47
2022-07-30T14:23:33.826Z,33.25
2022-07-30T14:26:07.469Z,33.25
2022-07-30T14:28:38.121Z,32.84
2022-07-30T14:31:09.356Z,32.55
2022-07-30T14:33:50.350Z,32.46
2022-07-30T14:36:21.512Z,32.03
2022-07-30T14:38:56.661Z,31.81
2022-07-30T14:41:34.396Z,31.97
2022-07-30T14:44:05.194Z,31.57
2022-07-30T14:46:37.414Z,31.57
2022-07-30T14:49:15.742Z,31.18
2022-07-30T14:51:52.211Z,31.18
2022-07-30T14:54:19.911Z,31.15
2022-07-30T14:56:54.908Z,31.18
2022-07-30T14:59:25.626Z,31.18
2022-07-30T15:01:58.468Z,30.79
2022-07-30T15:04:42.847Z,30.23
2022-07-30T15:07:21.431Z,30.23
2022-07-30T15:09:52.659Z,30.11
2022-07-30T15:12:30.570Z,30.24
2022-07-30T15:15:02.437Z,30.04
2022-07-30T15:17:35.032Z,30.01
2022-07-30T15:20:06.104Z,29.82
2022-07-30T15:22:37.488Z,29.74
2022-07-30T15:25:09.891Z,29.75
2022-07-30T15:27:44.359Z,29.57
2022-07-30T15:30:18.863Z,29.60
2022-07-30T15:32:52.171Z,29.41
2022-07-30T15:35:23.253Z,29.41
2022-07-30T15:37:58.454Z,29.35
2022-07-30T15:40:34.959Z,29.35
2022-07-30T15:43:09.822Z,29.16
2022-07-30T15:45:51.036Z,29.16
2022-07-30T15:48:24.650Z,29.08
2022-07-30T15:50:48.461Z,29.08
2022-07-30T15:53:23.380Z,29.01
2022-07-30T15:55:59.738Z,29.01
2022-07-30T15:58:35.735Z,28.82
2022-07-30T16:01:07.436Z,28.80
2022-07-30T16:03:38.549Z,28.82
2022-07-30T16:06:09.002Z,28.84
2022-07-30T16:08:40.089Z,28.84
2022-07-30T16:11:11.054Z,28.65
2022-07-30T16:13:42.248Z,28.65
2022-07-30T16:16:12.541Z,28.58
2022-07-30T16:18:43.604Z,28.53
2022-07-30T16:21:14.773Z,28.40
2022-07-30T16:23:46.060Z,28.43
2022-07-30T16:26:24.307Z,28.23
2022-07-30T16:29:03.809Z,28.30
2022-07-30T16:31:36.928Z,28.30
2022-07-30T16:34:10.104Z,28.17
2022-07-30T16:36:41.010Z,28.11
2022-07-30T16:39:11.414Z,28.10
2022-07-30T16:41:42.566Z,28.15
2022-07-30T16:44:14.046Z,28.15
2022-07-30T16:46:48.306Z,27.71
2022-07-30T16:49:22.302Z,27.87
2022-07-30T16:51:53.849Z,27.87
2022-07-30T16:54:27.090Z,27.85
2022-07-30T16:56:59.950Z,27.85
2022-07-30T16:59:32.170Z,27.63
2022-07-30T17:02:02.777Z,27.67
2022-07-30T17:04:33.310Z,27.50
2022-07-30T17:07:04.495Z,27.38
2022-07-30T17:09:34.942Z,27.43
2022-07-30T17:12:12.266Z,27.43
2022-07-30T17:14:42.132Z,27.27
2022-07-30T17:17:14.409Z,27.14
2022-07-30T17:19:45.215Z,27.18
2022-07-30T17:22:15.541Z,27.03
2022-07-30T17:24:49.449Z,27.07
2022-07-30T17:27:24.660Z,27.07
2022-07-30T17:29:55.579Z,26.73
2022-07-30T17:32:30.996Z,26.72
2022-07-30T17:35:03.075Z,26.72
2022-07-30T17:37:36.711Z,26.93
2022-07-30T17:40:27.625Z,26.93
2022-07-30T17:42:42.624Z,26.50
2022-07-30T17:45:14.076Z,26.50
2022-07-30T17:47:44.920Z,26.60
2022-07-30T17:50:15.946Z,26.67
2022-07-30T17:52:47.513Z,26.67
2022-07-30T17:55:18.689Z,26.43
2022-07-30T17:57:49.037Z,26.43
2022-07-30T18:00:22.125Z,26.36
2022-07-30T18:02:53.792Z,26.36
2022-07-30T18:05:24.519Z,26.15
2022-07-30T18:07:55.517Z,26.13
2022-07-30T18:10:28.493Z,26.12
2022-07-30T18:13:22.496Z,26.13
2022-07-30T18:15:36.355Z,26.13
2022-07-30T18:18:07.089Z,25.77
2022-07-30T18:20:37.772Z,25.67
2022-07-30T18:23:14.237Z,25.71
2022-07-30T18:25:51.560Z,25.71
2022-07-30T18:28:15.578Z,25.46
2022-07-30T18:30:47.500Z,25.46
2022-07-30T18:33:18.044Z,25.54
2022-07-30T18:35:48.552Z,25.54
2022-07-30T18:38:19.118Z,25.39
2022-07-30T18:40:49.716Z,25.39
2022-07-30T18:43:20.430Z,25.47
2022-07-30T18:45:52.003Z,25.48
2022-07-30T18:48:22.822Z,25.48
2022-07-30T18:50:53.222Z,25.50
2022-07-30T18:53:23.842Z,25.50
2022-07-30T18:55:55.380Z,25.33
2022-07-30T18:58:25.883Z,25.33
2022-07-30T19:00:59.400Z,25.04
2022-07-30T19:03:33.133Z,25.03
2022-07-30T19:06:04.666Z,25.03
2022-07-30T19:08:35.733Z,24.97
2022-07-30T19:11:06.022Z,24.84
2022-07-30T19:13:37.085Z,24.68
2022-07-30T19:16:08.542Z,24.68
2022-07-30T19:18:39.267Z,24.60
2022-07-30T19:21:13.918Z,24.60
2022-07-30T19:23:42.268Z,24.54
2022-07-30T19:26:12.678Z,24.48
2022-07-30T19:28:43.880Z,24.45
2022-07-30T19:31:14.365Z,24.41
2022-07-30T19:33:45.399Z,24.41
2022-07-30T19:36:19.651Z,24.36
2022-07-30T19:38:50.087Z,24.24
2022-07-30T19:41:20.475Z,24.24
2022-07-30T19:43:57.836Z,24.14
2022-07-30T19:46:24.562Z,24.14
2022-07-30T19:48:54.995Z,24.14
2022-07-30T19:52:10.639Z,24.03
2022-07-30T19:53:59.005Z,24.04
2022-07-30T19:56:29.614Z,23.95
2022-07-30T19:59:00.331Z,23.95
2022-07-30T20:01:40.363Z,23.89
2022-07-30T20:04:05.004Z,23.89
2022-07-30T20:06:38.401Z,23.84
2022-07-30T20:09:14.090Z,23.81
2022-07-30T20:11:41.306Z,23.75
2022-07-30T20:14:16.187Z,23.70
2022-07-30T20:16:46.625Z,23.70
2022-07-30T20:19:17.250Z,23.65
2022-07-30T20:21:56.547Z,23.62
2022-07-30T20:24:20.027Z,23.55
2022-07-30T20:26:51.965Z,23.54
2022-07-30T20:29:22.378Z,23.54
2022-07-30T20:31:52.997Z,23.48
2022-07-30T20:34:25.969Z,23.50
2022-07-30T20:36:56.828Z,23.39
2022-07-30T20:39:28.120Z,23.42
2022-07-30T20:41:58.755Z,23.42
2022-07-30T20:44:30.102Z,23.36
2022-07-30T20:47:08.178Z,23.36
2022-07-30T20:49:35.779Z,23.25
2022-07-30T20:52:07.763Z,23.21
2022-07-30T20:54:45.089Z,23.12
2022-07-30T20:57:15.388Z,23.10
2022-07-30T20:59:46.413Z,23.13
2022-07-30T21:02:16.857Z,23.13
2022-07-30T21:04:47.573Z,23.01
2022-07-30T21:07:20.549Z,23.01
2022-07-30T21:09:52.622Z,23.00
2022-07-30T21:12:32.581Z,22.98
2022-07-30T21:14:55.796Z,22.97
2022-07-30T21:17:26.231Z,22.94
2022-07-30T21:20:01.070Z,22.87
2022-07-30T21:22:31.770Z,22.87
2022-07-30T21:25:02.166Z,22.95
2022-07-30T21:27:34.328Z,22.75
2022-07-30T21:30:05.542Z,22.75
2022-07-30T21:32:36.312Z,22.78
2022-07-30T21:35:08.282Z,22.77
2022-07-30T21:37:42.873Z,22.78
2022-07-30T21:40:12.133Z,22.70
2022-07-30T21:42:48.761Z,22.65
2022-07-30T21:45:14.520Z,22.65
2022-07-30T21:47:47.766Z,22.57
2022-07-30T21:50:19.138Z,22.58
2022-07-30T21:52:50.226Z,22.50
2022-07-30T21:55:21.817Z,22.45
2022-07-30T21:57:52.736Z,22.52
2022-07-30T22:00:26.169Z,22.41
2022-07-30T22:02:59.257Z,22.37
2022-07-30T22:08:02.529Z,22.38
2022-07-30T22:10:34.197Z,22.38
2022-07-30T22:13:07.590Z,22.32
2022-07-30T22:15:40.335Z,22.32
2022-07-30T22:18:11.712Z,22.24
2022-07-30T22:20:42.600Z,22.23
2022-07-30T22:23:13.131Z,22.23
2022-07-30T22:25:43.933Z,22.23
2022-07-30T22:28:36.351Z,22.11
2022-07-30T22:31:12.499Z,22.11
2022-07-30T22:33:39.760Z,22.01
2022-07-30T22:36:10.247Z,21.98
2022-07-30T22:38:41.953Z,21.98
2022-07-30T22:41:14.109Z,21.97
2022-07-30T22:43:44.720Z,21.95
2022-07-30T22:46:30.563Z,21.82
2022-07-30T22:48:48.316Z,21.78
2022-07-30T22:51:18.972Z,21.78
2022-07-30T22:54:02.931Z,21.67
2022-07-30T22:56:23.970Z,21.66
2022-07-30T22:58:53.522Z,21.66
2022-07-30T23:01:24.564Z,21.52
2022-07-30T23:03:54.843Z,21.52
2022-07-30T23:06:25.498Z,21.51
2022-07-30T23:08:56.508Z,21.51
2022-07-30T23:11:37.097Z,21.46
2022-07-30T23:12:28.193Z,22.40
2022-07-30T23:13:59.338Z,21.45
2022-07-30T23:16:29.694Z,21.45
2022-07-30T23:19:00.222Z,21.37
2022-07-30T23:21:30.547Z,21.37
2022-07-30T23:24:00.879Z,21.19
2022-07-30T23:26:31.370Z,21.18
2022-07-30T23:29:01.854Z,21.18
2022-07-30T23:31:32.304Z,21.22
2022-07-30T23:34:02.794Z,21.09
2022-07-30T23:36:35.053Z,21.00
2022-07-30T23:39:05.568Z,21.00
2022-07-30T23:41:36.905Z,20.96
2022-07-30T23:44:07.199Z,20.95
2022-07-30T23:46:38.488Z,20.97
2022-07-30T23:49:08.969Z,20.93
2022-07-30T23:51:39.738Z,20.91
2022-07-30T23:54:10.272Z,20.90
2022-07-30T23:56:40.684Z,20.90
2022-07-30T23:59:11.735Z,20.87
